Map

Track Data

SID SEASON NUMBER BASIN SUBBASIN NAME ISO_TIME NATURE LAT LON WMO_WIND WMO_PRES WMO_AGENCY TRACK_TYPE DIST2LAND LANDFALL IFLAG USA_AGENCY USA_ATCF_ID USA_LAT USA_LON USA_RECORD USA_STATUS USA_WIND USA_PRES USA_SSHS USA_R34_NE USA_R34_SE USA_R34_SW USA_R34_NW USA_R50_NE USA_R50_SE USA_R50_SW USA_R50_NW USA_R64_NE USA_R64_SE USA_R64_SW USA_R64_NW USA_POCI USA_ROCI USA_RMW USA_EYE TOKYO_LAT TOKYO_LON TOKYO_GRADE TOKYO_WIND TOKYO_PRES TOKYO_R50_DIR TOKYO_R50_LONG TOKYO_R50_SHORT TOKYO_R30_DIR TOKYO_R30_LONG TOKYO_R30_SHORT TOKYO_LAND CMA_LAT CMA_LON CMA_CAT CMA_WIND CMA_PRES HKO_LAT HKO_LON HKO_CAT HKO_WIND HKO_PRES NEWDELHI_LAT NEWDELHI_LON NEWDELHI_GRADE NEWDELHI_WIND NEWDELHI_PRES NEWDELHI_CI NEWDELHI_DP NEWDELHI_POCI REUNION_LAT REUNION_LON REUNION_TYPE REUNION_WIND REUNION_PRES REUNION_TNUM REUNION_CI REUNION_RMW REUNION_R34_NE REUNION_R34_SE REUNION_R34_SW REUNION_R34_NW REUNION_R50_NE REUNION_R50_SE REUNION_R50_SW REUNION_R50_NW REUNION_R64_NE REUNION_R64_SE REUNION_R64_SW REUNION_R64_NW BOM_LAT BOM_LON BOM_TYPE BOM_WIND BOM_PRES BOM_TNUM BOM_CI BOM_RMW BOM_R34_NE BOM_R34_SE BOM_R34_SW BOM_R34_NW BOM_R50_NE BOM_R50_SE BOM_R50_SW BOM_R50_NW BOM_R64_NE BOM_R64_SE BOM_R64_SW BOM_R64_NW BOM_ROCI BOM_POCI BOM_EYE BOM_POS_METHOD BOM_PRES_METHOD NADI_LAT NADI_LON NADI_CAT NADI_WIND NADI_PRES WELLINGTON_LAT WELLINGTON_LON WELLINGTON_WIND WELLINGTON_PRES DS824_LAT DS824_LON DS824_STAGE DS824_WIND DS824_PRES TD9636_LAT TD9636_LON TD9636_STAGE TD9636_WIND TD9636_PRES TD9635_LAT TD9635_LON TD9635_WIND TD9635_PRES TD9635_ROCI NEUMANN_LAT NEUMANN_LON NEUMANN_CLASS NEUMANN_WIND NEUMANN_PRES MLC_LAT MLC_LON MLC_CLASS MLC_WIND MLC_PRES USA_GUST BOM_GUST BOM_GUST_PER REUNION_GUST REUNION_GUST_PER USA_SEAHGT USA_SEARAD_NE USA_SEARAD_SE USA_SEARAD_SW USA_SEARAD_NW STORM_SPEED STORM_DIR
1978194N11261 1978 51 EP MM GILMA 1978-07-13 00:00:00 TS 11.4000 -99.5000 30 hurdat_epa main 546 546 O________OO___ hurdat_epa EP071978 11.4000 -99.5000 TD 30 -1 11.4000 -99.5000 TC 30 11.4000 -99.5000 1 30 9 241
1978194N11261 1978 51 EP MM GILMA 1978-07-13 03:00:00 TS 11.1825 -99.8995 main 583 583 P________PP___ EP071978 11.1776 -99.8977 TD 32 -1 11.1776 -99.8977 TC 32 11.2021 -99.9069 1 31 9 243
1978194N11261 1978 51 EP MM GILMA 1978-07-13 06:00:00 TS 11.0046 -100.302 35 hurdat_epa main 621 621 O________OP___ hurdat_epa EP071978 11.0000 -100.300 TS 35 0 11.0000 -100.300 TC 35 11.0232 -100.311 1 32 8 250
1978194N11261 1978 51 EP MM GILMA 1978-07-13 09:00:00 TS 10.8905 -100.708 main 645 645 P________PP___ EP071978 10.8925 -100.707 TS 35 0 10.8925 -100.707 TC 35 10.8826 -100.709 1 33 8 255
1978194N11261 1978 51 EP MM GILMA 1978-07-13 12:00:00 TS 10.8000 -101.100 35 hurdat_epa main 672 672 O________OO___ hurdat_epa EP071978 10.8000 -101.100 TS 35 0 10.8000 -101.100 TC 35 10.8000 -101.100 2 35 8 251
1978194N11261 1978 51 EP MM GILMA 1978-07-13 15:00:00 TS 10.6412 -101.445 main 706 706 P________PP___ EP071978 10.6049 -101.435 TS 35 0 10.6049 -101.435 TC 35 10.7864 -101.485 2 35 7 251
1978194N11261 1978 51 EP MM GILMA 1978-07-13 18:00:00 TS 10.5639 -101.816 35 hurdat_epa main 719 719 O________OP___ hurdat_epa EP071978 10.5000 -101.800 TS 35 0 10.5000 -101.800 TC 35 10.8193 -101.882 2 35 8 275
1978194N11261 1978 51 EP MM GILMA 1978-07-13 21:00:00 TS 10.7155 -102.272 main 728 720 P________PP___ EP071978 10.6774 -102.262 TS 35 0 10.6774 -102.262 TC 35 10.8675 -102.313 2 35 10 289
1978194N11261 1978 51 EP MM GILMA 1978-07-14 00:00:00 TS 10.9000 -102.800 35 hurdat_epa main 730 730 O________OO___ hurdat_epa EP071978 10.9000 -102.800 TS 35 0 10.9000 -102.800 TC 35 10.9000 -102.800 2 35 11 281
1978194N11261 1978 51 EP MM GILMA 1978-07-14 03:00:00 TS 10.9198 -103.385 main 758 758 P________PP___ EP071978 10.9449 -103.378 TS 37 0 10.9449 -103.378 TC 37 10.8194 -103.413 2 37 12 268
1978194N11261 1978 51 EP MM GILMA 1978-07-14 06:00:00 TS 10.8652 -104.015 40 hurdat_epa main 781 781 O________OP___ hurdat_epa EP071978 10.9000 -104.000 TS 40 0 10.9000 -104.000 TC 40 10.7260 -104.074 2 40 13 262
1978194N11261 1978 51 EP MM GILMA 1978-07-14 09:00:00 TS 10.7381 -104.707 main 834 834 P________PP___ EP071978 10.7552 -104.703 TS 42 0 10.7552 -104.703 TC 42 10.6694 -104.722 2 42 13 263
1978194N11261 1978 51 EP MM GILMA 1978-07-14 12:00:00 TS 10.7000 -105.300 45 hurdat_epa main 866 856 O________OO___ hurdat_epa EP071978 10.7000 -105.300 TS 45 0 10.7000 -105.300 TC 45 10.7000 -105.300 2 45 9 282
1978194N11261 1978 51 EP MM GILMA 1978-07-14 15:00:00 TS 10.9282 -105.605 main 856 831 P________PP___ EP071978 10.9472 -105.580 TS 47 0 10.9472 -105.580 TC 47 10.8522 -105.705 2 48 8 316
1978194N11261 1978 51 EP MM GILMA 1978-07-14 18:00:00 TS 11.2598 -105.848 50 hurdat_epa main 821 810 O________OP___ hurdat_epa EP071978 11.3000 -105.800 TS 50 0 11.3000 -105.800 TC 50 11.0988 -106.038 2 52 9 313
1978194N11261 1978 51 EP MM GILMA 1978-07-14 21:00:00 TS 11.5062 -106.241 main 814 800 P________PP___ EP071978 11.5275 -106.213 TS 55 0 11.5275 -106.213 TC 55 11.4210 -106.352 2 56 10 303
1978194N11261 1978 51 EP MM GILMA 1978-07-15 00:00:00 TS 11.8000 -106.700 60 hurdat_epa main 804 784 O________OO___ hurdat_epa EP071978 11.8000 -106.700 TS 60 0 11.8000 -106.700 TC 60 11.8000 -106.700 2 60 12 308
1978194N11261 1978 51 EP MM GILMA 1978-07-15 03:00:00 TS 12.2207 -107.181 main 789 768 P________PP___ EP071978 12.2200 -107.192 TS 60 0 12.2200 -107.192 TC 60 12.2239 -107.136 2 60 13 313
1978194N11261 1978 51 EP MM GILMA 1978-07-15 06:00:00 TS 12.6984 -107.683 60 hurdat_epa main 771 762 O________OP___ hurdat_epa EP071978 12.7000 -107.700 TS 60 0 12.7000 -107.700 TC 60 12.6921 -107.617 2 60 13 313
1978194N11261 1978 51 EP MM GILMA 1978-07-15 09:00:00 TS 13.1348 -108.182 main 769 752 P________PP___ EP071978 13.1274 -108.193 TS 60 0 13.1274 -108.193 TC 60 13.1643 -108.140 2 60 13 312
1978194N11261 1978 51 EP MM GILMA 1978-07-15 12:00:00 TS 13.6000 -108.700 60 hurdat_epa main 752 729 O________OO___ hurdat_epa EP071978 13.6000 -108.700 TS 60 0 13.6000 -108.700 TC 60 13.6000 -108.700 2 60 15 316
1978194N11261 1978 51 EP MM GILMA 1978-07-15 15:00:00 TS 14.2106 -109.237 main 729 725 P________PP___ EP071978 14.2672 -109.219 TS 62 0 14.2672 -109.219 TC 62 13.9840 -109.309 2 62 16 315
1978194N11261 1978 51 EP MM GILMA 1978-07-15 18:00:00 TS 14.7041 -109.830 65 hurdat_epa main 732 732 O________OP___ hurdat_epa EP071978 14.8000 -109.800 HU 65 1 14.8000 -109.800 TC 65 14.3204 -109.949 2 65 14 296
1978194N11261 1978 51 EP MM GILMA 1978-07-15 21:00:00 TS 14.8255 -110.525 main 778 778 P________PP___ EP071978 14.8827 -110.508 HU 67 1 14.8827 -110.508 TC 67 14.5965 -110.590 2 67 13 274
1978194N11261 1978 51 EP MM GILMA 1978-07-16 00:00:00 TS 14.8000 -111.200 70 hurdat_epa main 832 832 O________OO___ hurdat_epa EP071978 14.8000 -111.200 HU 70 1 14.8000 -111.200 TC 70 14.8000 -111.200 4 70 12 271
1978194N11261 1978 51 EP MM GILMA 1978-07-16 03:00:00 TS 14.8491 -111.737 main 873 873 P________PP___ EP071978 14.8422 -111.730 HU 85 2 14.8422 -111.730 TC 85 14.8768 -111.766 4 73 10 276
1978194N11261 1978 51 EP MM GILMA 1978-07-16 06:00:00 TS 14.8984 -112.218 100 hurdat_epa main 908 908 O________OP___ hurdat_epa EP071978 14.9000 -112.200 HU 100 3 14.9000 -112.200 TC 100 14.8921 -112.292 4 77 10 273
1978194N11261 1978 51 EP MM GILMA 1978-07-16 09:00:00 TS 14.9063 -112.745 main 938 938 P________PP___ EP071978 14.9051 -112.738 HU 92 2 14.9051 -112.738 TC 92 14.9114 -112.772 4 81 10 276
1978194N11261 1978 51 EP MM GILMA 1978-07-16 12:00:00 TS 15.0000 -113.200 85 hurdat_epa main 945 926 O________OO___ hurdat_epa EP071978 15.0000 -113.200 HU 85 2 15.0000 -113.200 TC 85 15.0000 -113.200 4 85 8 299
1978194N11261 1978 51 EP MM GILMA 1978-07-16 15:00:00 TS 15.3094 -113.484 main 926 893 P________PP___ EP071978 15.3122 -113.465 HU 87 2 15.3122 -113.465 TC 87 15.2980 -113.558 4 86 9 323
1978194N11261 1978 51 EP MM GILMA 1978-07-16 18:00:00 TS 15.6928 -113.734 90 hurdat_epa main 893 878 O________OP___ hurdat_epa EP071978 15.7000 -113.700 HU 90 2 15.7000 -113.700 TC 90 15.6640 -113.871 4 87 10 322
1978194N11261 1978 51 EP MM GILMA 1978-07-16 21:00:00 TS 16.0526 -114.097 main 873 868 P________PP___ EP071978 16.0600 -114.077 HU 90 2 16.0600 -114.077 TC 90 16.0230 -114.174 4 88 10 310
1978194N11261 1978 51 EP MM GILMA 1978-07-17 00:00:00 TS 16.3000 -114.500 90 hurdat_epa main 875 875 O________OO___ hurdat_epa EP071978 16.3000 -114.500 HU 90 2 16.3000 -114.500 TC 90 16.3000 -114.500 4 90 8 288
1978194N11261 1978 51 EP MM GILMA 1978-07-17 03:00:00 TS 16.2973 -114.897 main 898 898 P________PP___ EP071978 16.2874 -114.893 HU 90 2 16.2874 -114.893 TC 90 16.3368 -114.914 4 90 8 264
1978194N11261 1978 51 EP MM GILMA 1978-07-17 06:00:00 TS 16.2186 -115.310 90 hurdat_epa main 932 932 O________OP___ hurdat_epa EP071978 16.2000 -115.300 HU 90 2 16.2000 -115.300 TC 90 16.2928 -115.352 4 90 8 264
1978194N11261 1978 51 EP MM GILMA 1978-07-17 09:00:00 TS 16.2145 -115.770 main 964 964 P________PP___ EP071978 16.2051 -115.765 HU 90 2 16.2051 -115.765 TC 90 16.2524 -115.789 4 90 9 275
1978194N11261 1978 51 EP MM GILMA 1978-07-17 12:00:00 TS 16.3000 -116.200 90 hurdat_epa main 982 981 O________OO___ hurdat_epa EP071978 16.3000 -116.200 HU 90 2 16.3000 -116.200 TC 90 16.3000 -116.200 4 90 8 292
1978194N11261 1978 51 EP MM GILMA 1978-07-17 15:00:00 TS 16.5072 -116.515 main 987 985 P________PP___ EP071978 16.4898 -116.515 HU 90 2 16.4898 -116.515 TC 90 16.5769 -116.513 4 90 8 313
1978194N11261 1978 51 EP MM GILMA 1978-07-17 18:00:00 TS 16.8292 -116.801 90 hurdat_epa main 985 969 O________OP___ hurdat_epa EP071978 16.8000 -116.800 HU 90 2 16.8000 -116.800 TC 90 16.9461 -116.805 4 90 10 323
1978194N11261 1978 51 EP MM GILMA 1978-07-17 21:00:00 TS 17.2803 -117.114 main 970 959 P________PP___ EP071978 17.2648 -117.112 HU 90 2 17.2648 -117.112 TC 90 17.3423 -117.119 4 90 11 323
1978194N11261 1978 51 EP MM GILMA 1978-07-18 00:00:00 TS 17.7000 -117.500 90 hurdat_epa main 961 958 O________OO___ hurdat_epa EP071978 17.7000 -117.500 HU 90 2 17.7000 -117.500 TC 90 17.7000 -117.500 4 90 11 305
1978194N11261 1978 51 EP MM GILMA 1978-07-18 03:00:00 TS 17.8886 -118.010 main 975 975 P________PP___ EP071978 17.8875 -118.013 HU 90 2 17.8875 -118.013 TC 90 17.8930 -117.996 4 86 11 287
1978194N11261 1978 51 EP MM GILMA 1978-07-18 06:00:00 TS 18.0085 -118.592 90 hurdat_epa main 1006 1006 O________OP___ hurdat_epa EP071978 18.0000 -118.600 HU 90 2 18.0000 -118.600 TC 90 18.0427 -118.562 4 82 12 285
1978194N11261 1978 51 EP MM GILMA 1978-07-18 09:00:00 TS 18.1811 -119.189 main 1032 1032 P________PP___ EP071978 18.1774 -119.193 HU 82 1 18.1774 -119.193 TC 82 18.1959 -119.172 4 78 12 289
1978194N11261 1978 51 EP MM GILMA 1978-07-18 12:00:00 TS 18.4000 -119.800 75 hurdat_epa main 1062 1062 O________OO___ hurdat_epa EP071978 18.4000 -119.800 HU 75 1 18.4000 -119.800 TC 75 18.4000 -119.800 4 75 12 294
1978194N11261 1978 51 EP MM GILMA 1978-07-18 15:00:00 TS 18.6788 -120.392 main 1086 1086 P________PP___ EP071978 18.6622 -120.393 HU 70 1 18.6622 -120.393 TC 70 18.7451 -120.390 4 70 13 299
1978194N11261 1978 51 EP MM GILMA 1978-07-18 18:00:00 TS 19.0282 -120.999 65 hurdat_epa main 1114 1108 O________OP___ hurdat_epa EP071978 19.0000 -121.000 HU 65 1 19.0000 -121.000 TC 65 19.1412 -120.996 4 65 14 304
1978194N11261 1978 51 EP MM GILMA 1978-07-18 21:00:00 TS 19.4801 -121.628 main 1130 1128 P________PP___ EP071978 19.4647 -121.627 HU 60 0 19.4647 -121.627 TC 60 19.5417 -121.630 4 60 15 305
1978194N11261 1978 51 EP MM GILMA 1978-07-19 00:00:00 TS 19.9000 -122.300 55 hurdat_epa main 1144 1142 O________OO___ hurdat_epa EP071978 19.9000 -122.300 TS 55 0 19.9000 -122.300 TC 55 19.9000 -122.300 2 55 15 297
1978194N11261 1978 51 EP MM GILMA 1978-07-19 03:00:00 TS 20.1391 -123.032 main 1174 1173 P________PP___ EP071978 20.1374 -123.036 TS 57 0 20.1374 -123.036 TC 57 20.1461 -123.020 2 52 15 286
1978194N11261 1978 51 EP MM GILMA 1978-07-19 06:00:00 TS 20.3090 -123.794 60 hurdat_epa main 1216 1216 O________OP___ hurdat_epa EP071978 20.3000 -123.800 TS 60 0 20.3000 -123.800 TC 60 20.3448 -123.772 2 50 15 285
1978194N11261 1978 51 EP MM GILMA 1978-07-19 09:00:00 TS 20.5099 -124.548 main 1254 1254 P________PP___ EP071978 20.5072 -124.550 TS 52 0 20.5072 -124.550 TC 52 20.5210 -124.538 2 47 15 285
1978194N11261 1978 51 EP MM GILMA 1978-07-19 12:00:00 TS 20.7000 -125.300 45 hurdat_epa main 1303 1303 O________OO___ hurdat_epa EP071978 20.7000 -125.300 TS 45 0 20.7000 -125.300 TC 45 20.7000 -125.300 2 45 15 283
1978194N11261 1978 51 EP MM GILMA 1978-07-19 15:00:00 TS 20.8482 -126.055 main 1362 1355 P________PP___ EP071978 20.8348 -126.058 TS 35 0 20.8348 -126.058 TC 35 20.9018 -126.043 2 40 14 283
1978194N11261 1978 51 EP MM GILMA 1978-07-19 18:00:00 TS 21.0249 -126.794 25 hurdat_epa main 1408 1408 O________OP___ hurdat_epa EP071978 21.0000 -126.800 TD 25 -1 21.0000 -126.800 TC 25 21.1243 -126.770 2 35 14 288
1978194N11261 1978 51 EP MM GILMA 1978-07-19 21:00:00 TS 21.2863 -127.505 main 1450 1450 P________PP___ EP071978 21.2680 -127.509 TD 25 -1 21.2680 -127.509 TC 25 21.3597 -127.487 2 30 14 294
1978194N11261 1978 51 EP MM GILMA 1978-07-20 00:00:00 TS 21.6000 -128.200 25 hurdat_epa main 1495 O________OO___ hurdat_epa EP071978 21.6000 -128.200 TD 25 -1 21.6000 -128.200 TC 25 21.6000 -128.200 1 25 14 296

About IBTrACS Database

This database is a web-friendly format of International Best Track Archive for Climate Stewardship (IBTrACS), a global best track data archive curated by NOAA dating back to 1842.

Updated: 2021-12-08